createdAt,value
2022-11-23T00:00:50.170Z,78
2022-11-23T00:02:50.782Z,78
2022-11-23T00:04:50.792Z,78
2022-11-23T00:06:50.585Z,78
2022-11-23T00:08:51.008Z,78
2022-11-23T00:10:50.614Z,78
2022-11-23T00:12:51.059Z,78
2022-11-23T00:14:50.657Z,79
2022-11-23T00:16:50.473Z,79
2022-11-23T00:18:50.066Z,79
2022-11-23T00:20:50.704Z,79
2022-11-23T00:22:50.078Z,79
2022-11-23T00:24:50.722Z,79
2022-11-23T00:26:50.533Z,79
2022-11-23T00:28:51.003Z,79
2022-11-23T00:30:50.791Z,79
2022-11-23T00:32:50.397Z,79
2022-11-23T00:34:50.436Z,79
2022-11-23T00:36:50.176Z,79
2022-11-23T00:38:50.633Z,79
2022-11-23T00:40:50.440Z,79
2022-11-23T00:42:50.894Z,80
2022-11-23T00:44:50.680Z,79
2022-11-23T00:46:50.490Z,79
2022-11-23T00:48:50.855Z,80
2022-11-23T00:50:50.514Z,80
2022-11-23T00:52:50.940Z,80
2022-11-23T00:54:50.636Z,80
2022-11-23T00:56:50.363Z,80
2022-11-23T00:58:50.791Z,80
2022-11-23T01:00:50.628Z,80
2022-11-23T01:02:50.181Z,80
2022-11-23T01:04:50.241Z,80
2022-11-23T01:06:50.243Z,80
2022-11-23T01:08:50.875Z,80
2022-11-23T01:10:50.663Z,80
2022-11-23T01:12:50.058Z,80
2022-11-23T01:14:50.879Z,80
2022-11-23T01:16:50.722Z,80
2022-11-23T01:18:50.145Z,81
2022-11-23T01:20:50.926Z,81
2022-11-23T01:22:50.313Z,81
2022-11-23T01:24:50.625Z,81
2022-11-23T01:26:50.376Z,81
2022-11-23T01:28:50.194Z,81
2022-11-23T01:30:50.568Z,81
2022-11-23T01:32:50.246Z,81
2022-11-23T01:34:50.189Z,81
2022-11-23T01:36:50.071Z,81
2022-11-23T01:38:50.656Z,81
2022-11-23T01:40:50.068Z,81
2022-11-23T01:42:50.879Z,81
2022-11-23T01:44:50.496Z,81
2022-11-23T01:46:50.325Z,81
2022-11-23T01:48:50.116Z,81
2022-11-23T01:50:50.503Z,81
2022-11-23T01:52:50.136Z,82
2022-11-23T01:54:50.587Z,82
2022-11-23T01:56:50.389Z,82
2022-11-23T01:58:50.983Z,82
2022-11-23T02:00:50.767Z,82
2022-11-23T02:02:50.223Z,82
2022-11-23T02:04:50.266Z,82
2022-11-23T02:06:50.069Z,83
2022-11-23T02:08:50.911Z,82
2022-11-23T02:10:50.477Z,82
2022-11-23T02:12:50.111Z,83
2022-11-23T02:14:50.738Z,83
2022-11-23T02:16:50.487Z,83
2022-11-23T02:18:50.169Z,83
2022-11-23T02:20:50.745Z,83
2022-11-23T02:22:50.186Z,83
2022-11-23T02:24:50.996Z,83
2022-11-23T02:26:50.799Z,84
2022-11-23T02:28:50.440Z,84
2022-11-23T02:30:51.037Z,84
2022-11-23T02:32:50.684Z,84
2022-11-23T02:34:50.686Z,84
2022-11-23T02:36:50.397Z,84
2022-11-23T02:38:50.098Z,84
2022-11-23T02:40:50.704Z,84
2022-11-23T02:42:50.125Z,84
2022-11-23T02:44:50.940Z,84
2022-11-23T02:46:51.038Z,84
2022-11-23T02:48:50.740Z,84
2022-11-23T02:50:50.502Z,84
2022-11-23T02:52:50.980Z,84
2022-11-23T02:54:50.607Z,84
2022-11-23T02:56:50.724Z,84
2022-11-23T02:58:50.252Z,84
2022-11-23T03:00:50.388Z,84
2022-11-23T03:02:50.875Z,84
2022-11-23T03:04:50.959Z,84
2022-11-23T03:06:50.762Z,84
2022-11-23T03:08:50.766Z,84
2022-11-23T03:10:50.317Z,84
2022-11-23T03:12:50.934Z,84
2022-11-23T03:14:50.538Z,84
2022-11-23T03:16:50.362Z,84
2022-11-23T03:18:50.979Z,84
2022-11-23T03:20:50.587Z,84
2022-11-23T03:22:50.992Z,84
2022-11-23T03:24:50.599Z,84
2022-11-23T03:26:50.722Z,84
2022-11-23T03:28:50.262Z,84
2022-11-23T03:30:50.876Z,84
2022-11-23T03:32:50.485Z,84
2022-11-23T03:34:50.627Z,84
2022-11-23T03:36:50.335Z,84
2022-11-23T03:38:50.903Z,84
2022-11-23T03:40:50.576Z,84
2022-11-23T03:42:50.173Z,84
2022-11-23T03:44:50.986Z,84
2022-11-23T03:46:51.006Z,84
2022-11-23T03:48:50.613Z,84
2022-11-23T03:50:50.210Z,84
2022-11-23T03:52:50.581Z,85
2022-11-23T03:54:50.270Z,85
2022-11-23T03:56:50.336Z,85
2022-11-23T03:58:50.888Z,85
2022-11-23T04:00:50.711Z,85
2022-11-23T04:02:50.287Z,85
2022-11-23T04:04:50.339Z,85
2022-11-23T04:06:50.145Z,85
2022-11-23T04:08:50.762Z,85
2022-11-23T04:10:50.577Z,85
2022-11-23T04:12:51.185Z,85
2022-11-23T04:14:50.969Z,84
2022-11-23T04:16:50.947Z,84
2022-11-23T04:18:50.645Z,84
2022-11-23T04:20:50.265Z,84
2022-11-23T04:22:50.835Z,84
2022-11-23T04:24:50.253Z,84
2022-11-23T04:26:50.297Z,84
2022-11-23T04:28:50.886Z,84
2022-11-23T04:30:50.551Z,84
2022-11-23T04:32:50.321Z,84
2022-11-23T04:34:50.809Z,84
2022-11-23T04:36:50.971Z,85
2022-11-23T04:38:50.567Z,85
2022-11-23T04:40:50.195Z,85
2022-11-23T04:42:50.787Z,85
2022-11-23T04:44:50.222Z,85
2022-11-23T04:46:50.215Z,85
2022-11-23T04:48:50.850Z,85
2022-11-23T04:50:56.329Z,85
2022-11-23T04:52:50.066Z,85
2022-11-23T04:54:50.664Z,85
2022-11-23T04:56:50.727Z,85
2022-11-23T04:58:50.325Z,85
2022-11-23T05:00:51.289Z,85
2022-11-23T05:02:50.165Z,85
2022-11-23T05:04:50.322Z,84
2022-11-23T05:06:50.186Z,84
2022-11-23T05:08:50.770Z,84
2022-11-23T05:10:50.392Z,84
2022-11-23T05:12:51.000Z,84
2022-11-23T05:14:50.441Z,84
2022-11-23T05:16:50.286Z,84
2022-11-23T05:18:50.062Z,84
2022-11-23T05:20:50.734Z,84
2022-11-23T05:22:50.476Z,84
2022-11-23T05:24:50.109Z,84
2022-11-23T05:26:56.909Z,84
2022-11-23T05:28:50.771Z,83
2022-11-23T05:30:50.403Z,83
2022-11-23T05:32:50.951Z,83
2022-11-23T05:34:51.014Z,83
2022-11-23T05:36:50.970Z,83
2022-11-23T05:38:50.853Z,83
2022-11-23T05:40:50.175Z,83
2022-11-23T05:42:50.629Z,83
2022-11-23T05:44:50.239Z,83
2022-11-23T05:46:50.045Z,83
2022-11-23T05:48:50.688Z,83
2022-11-23T05:50:50.086Z,83
2022-11-23T05:52:50.482Z,83
2022-11-23T05:54:50.315Z,83
2022-11-23T05:56:50.129Z,83
2022-11-23T05:58:50.502Z,83
2022-11-23T06:00:50.276Z,83
2022-11-23T06:02:50.763Z,83
2022-11-23T06:04:50.609Z,83
2022-11-23T06:06:50.433Z,83
2022-11-23T06:08:50.113Z,83
2022-11-23T06:10:50.856Z,83
2022-11-23T06:12:50.490Z,83
2022-11-23T06:14:50.091Z,83
2022-11-23T06:16:50.853Z,83
2022-11-23T06:18:50.340Z,83
2022-11-23T06:20:50.092Z,83
2022-11-23T06:22:50.980Z,83
2022-11-23T06:24:50.586Z,83
2022-11-23T06:26:50.385Z,83
2022-11-23T06:28:50.923Z,83
2022-11-23T06:30:50.587Z,83
2022-11-23T06:32:50.085Z,82
2022-11-23T06:34:51.494Z,82
2022-11-23T06:36:50.275Z,82
2022-11-23T06:38:50.958Z,82
2022-11-23T06:40:50.718Z,82
2022-11-23T06:42:50.270Z,82
2022-11-23T06:44:50.046Z,82
2022-11-23T06:46:50.891Z,82
2022-11-23T06:48:50.529Z,82
2022-11-23T06:50:50.264Z,82
2022-11-23T06:52:50.741Z,82
2022-11-23T06:54:50.805Z,82
2022-11-23T06:56:50.579Z,82
2022-11-23T06:58:50.171Z,82
2022-11-23T07:00:50.809Z,82
2022-11-23T07:02:50.233Z,82
2022-11-23T07:04:50.527Z,82
2022-11-23T07:06:50.473Z,82
2022-11-23T07:08:50.061Z,82
2022-11-23T07:10:50.096Z,82
2022-11-23T07:12:50.659Z,82
2022-11-23T07:14:50.538Z,82
2022-11-23T07:16:50.295Z,82
2022-11-23T07:18:50.979Z,82
2022-11-23T07:20:50.141Z,82
2022-11-23T07:22:50.554Z,82
2022-11-23T07:24:50.228Z,82
2022-11-23T07:26:51.070Z,82
2022-11-23T07:28:50.799Z,82
2022-11-23T07:30:50.328Z,82
2022-11-23T07:32:50.855Z,82
2022-11-23T07:34:50.848Z,82
2022-11-23T07:36:50.672Z,82
2022-11-23T07:38:50.266Z,82
2022-11-23T07:40:50.294Z,82
2022-11-23T07:42:50.106Z,82
2022-11-23T07:44:50.474Z,82
2022-11-23T07:46:50.384Z,82
2022-11-23T07:48:51.001Z,82
2022-11-23T07:50:50.588Z,82
2022-11-23T07:52:50.366Z,82
2022-11-23T07:54:50.787Z,82
2022-11-23T07:56:50.627Z,82
2022-11-23T08:00:50.839Z,82
2022-11-23T08:03:29.242Z,82
2022-11-23T08:04:50.604Z,82
2022-11-23T08:06:50.548Z,82
2022-11-23T08:08:50.352Z,82
2022-11-23T08:10:55.325Z,82
2022-11-23T08:12:50.287Z,82
2022-11-23T08:14:50.834Z,82
2022-11-23T08:16:50.750Z,82
2022-11-23T08:18:50.411Z,82
2022-11-23T08:20:50.547Z,82
2022-11-23T08:22:50.412Z,81
2022-11-23T08:24:51.007Z,82
2022-11-23T08:26:50.815Z,81
2022-11-23T08:28:50.447Z,81
2022-11-23T08:30:50.892Z,81
2022-11-23T08:32:50.695Z,81
2022-11-23T08:34:50.802Z,81
2022-11-23T08:36:50.721Z,81
2022-11-23T08:38:50.422Z,81
2022-11-23T08:40:51.055Z,81
2022-11-23T08:42:50.957Z,81
2022-11-23T08:44:50.600Z,81
2022-11-23T08:46:50.368Z,81
2022-11-23T08:48:50.982Z,81
2022-11-23T08:50:50.588Z,81
2022-11-23T08:52:50.420Z,81
2022-11-23T08:54:50.943Z,81
2022-11-23T08:56:50.902Z,80
2022-11-23T08:58:50.555Z,80
2022-11-23T09:00:50.261Z,80
2022-11-23T09:02:50.161Z,80
2022-11-23T09:04:50.246Z,80
2022-11-23T09:06:50.138Z,80
2022-11-23T09:08:50.782Z,80
2022-11-23T09:10:50.339Z,80
2022-11-23T09:12:50.185Z,80
2022-11-23T09:14:50.795Z,80
2022-11-23T09:16:50.701Z,80
2022-11-23T09:18:50.184Z,80
2022-11-23T09:20:50.785Z,81
2022-11-23T09:22:50.861Z,80
2022-11-23T09:24:50.846Z,80
2022-11-23T09:26:51.046Z,80
2022-11-23T09:28:50.785Z,80
2022-11-23T09:30:50.342Z,80
2022-11-23T09:32:50.918Z,80
2022-11-23T09:34:50.990Z,80
2022-11-23T09:36:50.929Z,80
2022-11-23T09:38:58.176Z,80
2022-11-23T09:40:58.253Z,79
2022-11-23T09:42:51.066Z,79
2022-11-23T09:44:50.856Z,79
2022-11-23T09:46:50.729Z,79
2022-11-23T09:48:50.245Z,79
2022-11-23T09:50:50.715Z,79
2022-11-23T09:52:50.490Z,78
2022-11-23T09:54:50.057Z,78
2022-11-23T09:56:50.911Z,78
2022-11-23T09:58:50.293Z,79
2022-11-23T10:00:50.671Z,79
2022-11-23T10:02:50.546Z,77
2022-11-23T10:04:50.591Z,77
2022-11-23T10:06:50.573Z,77
2022-11-23T10:08:50.401Z,77
2022-11-23T10:10:50.984Z,77
2022-11-23T10:12:50.806Z,77
2022-11-23T10:14:50.347Z,77
2022-11-23T10:16:50.263Z,77
2022-11-23T10:18:50.913Z,77
2022-11-23T10:20:50.472Z,77
2022-11-23T10:22:50.383Z,77
2022-11-23T10:24:50.949Z,77
2022-11-23T10:26:50.709Z,77
2022-11-23T10:28:50.544Z,77
2022-11-23T10:30:50.357Z,77
2022-11-23T10:32:50.959Z,77
2022-11-23T10:34:50.992Z,76
2022-11-23T10:36:50.930Z,76
2022-11-23T10:38:50.594Z,76
2022-11-23T10:40:50.216Z,75
2022-11-23T10:42:50.870Z,75
2022-11-23T10:44:50.420Z,75
2022-11-23T10:46:50.267Z,75
2022-11-23T10:48:50.862Z,75
2022-11-23T10:50:50.265Z,75
2022-11-23T10:52:50.915Z,75
2022-11-23T10:54:50.567Z,74
2022-11-23T10:56:50.574Z,75
2022-11-23T10:58:50.799Z,74
2022-11-23T11:00:50.352Z,74
2022-11-23T11:02:50.951Z,74
2022-11-23T11:04:59.054Z,74
2022-11-23T11:06:51.010Z,73
2022-11-23T11:08:50.592Z,73
2022-11-23T11:10:51.021Z,73
2022-11-23T11:12:50.870Z,73
2022-11-23T11:14:50.349Z,73
2022-11-23T11:16:50.057Z,73
2022-11-23T11:18:50.706Z,73
2022-11-23T11:20:50.307Z,73
2022-11-23T11:22:50.291Z,73
2022-11-23T11:24:50.925Z,72
2022-11-23T11:26:50.741Z,73
2022-11-23T11:28:50.562Z,72
2022-11-23T11:30:50.957Z,72
2022-11-23T11:32:50.622Z,72
2022-11-23T11:34:50.647Z,71
2022-11-23T11:36:50.620Z,72
2022-11-23T11:39:20.108Z,72
2022-11-23T11:40:50.240Z,72
2022-11-23T11:42:51.047Z,71
2022-11-23T11:44:50.644Z,70
2022-11-23T11:46:50.496Z,69
2022-11-23T11:48:50.061Z,69
2022-11-23T11:50:50.488Z,69
2022-11-23T11:52:50.502Z,69
2022-11-23T11:54:50.271Z,69
2022-11-23T11:56:50.344Z,70
2022-11-23T11:58:51.078Z,70
2022-11-23T12:00:50.632Z,70
2022-11-23T12:02:50.380Z,69
2022-11-23T12:04:50.576Z,70
2022-11-23T12:06:50.391Z,70
2022-11-23T12:08:50.225Z,70
2022-11-23T12:10:50.862Z,69
2022-11-23T12:12:50.366Z,68
2022-11-23T12:14:50.201Z,68
2022-11-23T12:17:33.040Z,68
2022-11-23T12:18:50.339Z,68
2022-11-23T12:20:50.085Z,68
2022-11-23T12:22:50.816Z,68
2022-11-23T12:24:50.672Z,68
2022-11-23T12:26:50.470Z,68
2022-11-23T12:28:50.159Z,68
2022-11-23T12:30:50.897Z,68
2022-11-23T12:32:50.505Z,68
2022-11-23T12:34:50.524Z,68
2022-11-23T12:36:50.321Z,68
2022-11-23T12:38:50.069Z,69
2022-11-23T12:40:50.920Z,69
2022-11-23T12:42:50.468Z,69
2022-11-23T12:44:50.484Z,69
2022-11-23T12:46:50.446Z,69
2022-11-23T12:48:50.068Z,69
2022-11-23T12:50:50.806Z,69
2022-11-23T12:52:50.441Z,68
2022-11-23T12:54:51.512Z,68
2022-11-23T12:56:50.968Z,69
2022-11-23T12:58:50.711Z,69
2022-11-23T13:00:50.870Z,69
2022-11-23T13:02:50.652Z,69
2022-11-23T13:04:50.984Z,69
2022-11-23T13:07:33.846Z,68
2022-11-23T13:08:50.524Z,69
2022-11-23T13:10:50.368Z,68
2022-11-23T13:12:50.817Z,68
2022-11-23T13:14:50.208Z,68
2022-11-23T13:16:50.863Z,67
2022-11-23T13:18:50.682Z,67
2022-11-23T13:20:50.269Z,67
2022-11-23T13:22:50.912Z,67
2022-11-23T13:24:50.731Z,67
2022-11-23T13:26:50.562Z,67
2022-11-23T13:28:50.662Z,67
2022-11-23T13:31:16.662Z,67
2022-11-23T13:32:50.805Z,67
2022-11-23T13:34:50.828Z,67
2022-11-23T13:37:14.035Z,66
2022-11-23T13:38:50.215Z,67
2022-11-23T13:40:50.057Z,65
2022-11-23T13:42:50.609Z,65
2022-11-23T13:44:50.568Z,65
2022-11-23T13:46:50.658Z,66
2022-11-23T13:48:58.519Z,66
2022-11-23T13:50:50.063Z,66
2022-11-23T13:52:50.684Z,66
2022-11-23T13:54:50.308Z,66
2022-11-23T13:56:50.397Z,66
2022-11-23T13:58:50.772Z,66
2022-11-23T14:00:50.960Z,66
2022-11-23T14:02:50.609Z,66
2022-11-23T14:04:50.583Z,66
2022-11-23T14:06:50.626Z,66
2022-11-23T14:08:50.242Z,67
2022-11-23T14:10:50.764Z,67
2022-11-23T14:12:50.340Z,67
2022-11-23T14:14:50.175Z,66
2022-11-23T14:16:50.673Z,67
2022-11-23T14:18:50.475Z,67
2022-11-23T14:20:50.555Z,67
2022-11-23T14:22:50.632Z,67
2022-11-23T14:24:50.656Z,67
2022-11-23T14:26:50.689Z,67
2022-11-23T14:28:50.807Z,67
2022-11-23T14:30:50.572Z,67
2022-11-23T14:32:50.491Z,67
2022-11-23T14:34:50.229Z,67
2022-11-23T14:36:50.744Z,67
2022-11-23T14:38:50.666Z,67
2022-11-23T14:40:50.171Z,67
2022-11-23T14:42:50.782Z,67
2022-11-23T14:44:50.447Z,67
2022-11-23T14:46:50.666Z,67
2022-11-23T14:48:50.250Z,67
2022-11-23T14:50:51.050Z,68
2022-11-23T14:52:50.615Z,68
2022-11-23T14:54:50.249Z,68
2022-11-23T14:56:50.070Z,68
2022-11-23T14:58:50.764Z,68
2022-11-23T15:00:50.276Z,68
2022-11-23T15:02:51.354Z,68
2022-11-23T15:04:51.581Z,68
2022-11-23T15:06:50.567Z,68
2022-11-23T15:08:50.380Z,68
2022-11-23T15:10:51.034Z,69
2022-11-23T15:12:50.802Z,69
2022-11-23T15:14:50.461Z,69
2022-11-23T15:16:51.017Z,69
2022-11-23T15:18:50.826Z,69
2022-11-23T15:20:50.482Z,69
2022-11-23T15:22:50.275Z,70
2022-11-23T15:24:50.889Z,70
2022-11-23T15:26:51.228Z,70
2022-11-23T15:28:50.903Z,70
2022-11-23T15:30:59.492Z,70
2022-11-23T15:32:50.584Z,70
2022-11-23T15:34:50.675Z,70
2022-11-23T15:36:50.539Z,70
2022-11-23T15:38:50.156Z,70
2022-11-23T15:40:50.674Z,70
2022-11-23T15:42:50.342Z,71
2022-11-23T15:45:03.826Z,71
2022-11-23T15:46:50.791Z,71
2022-11-23T15:48:50.720Z,71
2022-11-23T15:50:50.423Z,72
2022-11-23T15:52:50.193Z,72
2022-11-23T15:54:50.721Z,72
2022-11-23T15:56:50.816Z,72
2022-11-23T15:58:50.343Z,71
2022-11-23T16:00:50.649Z,72
2022-11-23T16:02:51.121Z,72
2022-11-23T16:04:50.299Z,72
2022-11-23T16:06:50.786Z,72
2022-11-23T16:08:50.473Z,73
2022-11-23T16:10:51.008Z,73
2022-11-23T16:12:50.841Z,73
2022-11-23T16:14:50.514Z,73
2022-11-23T16:16:50.852Z,73
2022-11-23T16:18:50.590Z,73
2022-11-23T16:20:50.312Z,74
2022-11-23T16:22:50.591Z,74
2022-11-23T16:24:50.531Z,74
2022-11-23T16:26:50.368Z,74
2022-11-23T16:28:50.417Z,74
2022-11-23T16:30:51.334Z,75
2022-11-23T16:32:50.183Z,75
2022-11-23T16:34:50.596Z,75
2022-11-23T16:36:50.789Z,75
2022-11-23T16:38:50.473Z,75
2022-11-23T16:40:50.873Z,75
2022-11-23T16:42:50.666Z,75
2022-11-23T16:44:50.259Z,75
2022-11-23T16:46:50.855Z,76
2022-11-23T16:50:50.724Z,76
2022-11-23T16:52:50.328Z,77
2022-11-23T16:54:50.921Z,77
2022-11-23T16:56:50.954Z,77
2022-11-23T16:58:50.593Z,77
2022-11-23T17:00:50.226Z,77
2022-11-23T17:02:51.492Z,77
2022-11-23T17:04:51.003Z,78
2022-11-23T17:06:51.030Z,78
2022-11-23T17:09:08.608Z,78
2022-11-23T17:10:50.944Z,78
2022-11-23T17:12:50.476Z,78
2022-11-23T17:14:50.324Z,78
2022-11-23T17:16:50.716Z,78
2022-11-23T17:18:50.481Z,78
2022-11-23T17:20:50.951Z,78
2022-11-23T17:22:50.724Z,78
2022-11-23T17:24:50.438Z,78
2022-11-23T17:26:50.349Z,78
2022-11-23T17:28:50.229Z,78
2022-11-23T17:30:51.186Z,78
2022-11-23T17:32:50.990Z,78
2022-11-23T17:34:50.218Z,78
2022-11-23T17:36:51.003Z,78
2022-11-23T17:38:50.443Z,78
2022-11-23T17:40:51.023Z,78
2022-11-23T17:42:50.682Z,78
2022-11-23T17:44:50.295Z,78
2022-11-23T17:46:50.301Z,78
2022-11-23T17:48:50.909Z,78
2022-11-23T17:50:50.749Z,78
2022-11-23T17:52:50.331Z,78
2022-11-23T17:54:50.894Z,78
2022-11-23T17:56:50.797Z,78
2022-11-23T17:58:50.383Z,78
2022-11-23T18:00:50.225Z,78
2022-11-23T18:02:50.835Z,78
2022-11-23T18:04:51.051Z,78
2022-11-23T18:06:50.870Z,78
2022-11-23T18:08:50.445Z,78
2022-11-23T18:10:59.142Z,78
2022-11-23T18:12:50.848Z,78
2022-11-23T18:14:50.730Z,78
2022-11-23T18:16:50.538Z,78
2022-11-23T18:18:50.322Z,78
2022-11-23T18:20:50.987Z,78
2022-11-23T18:22:50.780Z,79
2022-11-23T18:24:50.359Z,79
2022-11-23T18:26:50.168Z,79
2022-11-23T18:28:50.822Z,79
2022-11-23T18:30:50.776Z,79
2022-11-23T18:32:50.647Z,79
2022-11-23T18:34:50.668Z,79
2022-11-23T18:36:50.656Z,79
2022-11-23T18:38:50.260Z,79
2022-11-23T18:40:50.883Z,79
2022-11-23T18:42:50.552Z,79
2022-11-23T18:44:50.124Z,79
2022-11-23T18:46:50.841Z,80
2022-11-23T18:48:50.350Z,80
2022-11-23T18:50:50.936Z,80
2022-11-23T18:52:50.397Z,80
2022-11-23T18:54:50.977Z,80
2022-11-23T18:56:51.027Z,80
2022-11-23T18:58:50.407Z,80
2022-11-23T19:00:51.035Z,80
2022-11-23T19:02:50.711Z,80
2022-11-23T19:04:50.945Z,80
2022-11-23T19:06:50.951Z,80
2022-11-23T19:08:50.497Z,80
2022-11-23T19:10:50.125Z,80
2022-11-23T19:12:50.681Z,80
2022-11-23T19:14:50.580Z,80
2022-11-23T19:16:50.336Z,80
2022-11-23T19:18:50.949Z,80
2022-11-23T19:20:50.611Z,80
2022-11-23T19:22:50.258Z,80
2022-11-23T19:24:51.007Z,80
2022-11-23T19:26:50.089Z,80
2022-11-23T19:28:50.931Z,80
2022-11-23T19:30:50.946Z,80
2022-11-23T19:32:50.747Z,80
2022-11-23T19:34:51.016Z,80
2022-11-23T19:36:50.403Z,80
2022-11-23T19:38:50.980Z,80
2022-11-23T19:40:50.551Z,80
2022-11-23T19:42:50.594Z,80
2022-11-23T19:44:50.293Z,80
2022-11-23T19:46:50.608Z,80
2022-11-23T19:48:50.334Z,81
2022-11-23T19:50:50.144Z,81
2022-11-23T19:53:13.559Z,81
2022-11-23T19:54:50.673Z,81
2022-11-23T19:56:50.571Z,81
2022-11-23T19:58:50.096Z,81
2022-11-23T20:00:50.869Z,81
2022-11-23T20:02:50.521Z,81
2022-11-23T20:04:51.117Z,82
2022-11-23T20:06:51.092Z,82
2022-11-23T20:08:50.702Z,82
2022-11-23T20:10:50.595Z,82
2022-11-23T20:12:50.240Z,82
2022-11-23T20:14:51.014Z,82
2022-11-23T20:16:50.953Z,82
2022-11-23T20:18:50.714Z,82
2022-11-23T20:20:50.529Z,82
2022-11-23T20:22:50.556Z,82
2022-11-23T20:24:50.123Z,82
2022-11-23T20:26:50.170Z,82
2022-11-23T20:28:50.095Z,82
2022-11-23T20:30:51.884Z,83
2022-11-23T20:32:52.561Z,83
2022-11-23T20:34:50.869Z,83
2022-11-23T20:36:51.057Z,83
2022-11-23T20:38:50.747Z,83
2022-11-23T20:40:50.601Z,82
2022-11-23T20:42:50.161Z,82
2022-11-23T20:44:50.632Z,82
2022-11-23T20:47:04.406Z,82
2022-11-23T20:48:50.997Z,82
2022-11-23T20:50:51.030Z,82
2022-11-23T20:52:50.852Z,82
2022-11-23T20:54:50.729Z,82
2022-11-23T20:56:50.711Z,82
2022-11-23T20:58:50.367Z,82
2022-11-23T21:00:52.109Z,82
2022-11-23T21:02:50.850Z,82
2022-11-23T21:04:51.018Z,82
2022-11-23T21:06:50.933Z,82
2022-11-23T21:08:50.443Z,82
2022-11-23T21:10:50.972Z,83
2022-11-23T21:12:51.269Z,83
2022-11-23T21:14:50.800Z,83
2022-11-23T21:16:50.638Z,83
2022-11-23T21:18:50.258Z,83
2022-11-23T21:20:50.860Z,82
2022-11-23T21:22:50.695Z,83
2022-11-23T21:24:50.528Z,83
2022-11-23T21:26:50.621Z,83
2022-11-23T21:28:50.373Z,83
2022-11-23T21:30:51.016Z,83
2022-11-23T21:32:50.722Z,83
2022-11-23T21:34:50.879Z,83
2022-11-23T21:36:50.795Z,83
2022-11-23T21:38:50.513Z,83
2022-11-23T21:40:51.067Z,83
2022-11-23T21:42:50.805Z,82
2022-11-23T21:44:50.291Z,82
2022-11-23T21:46:50.815Z,82
2022-11-23T21:48:50.550Z,82
2022-11-23T21:50:50.120Z,82
2022-11-23T21:52:50.789Z,82
2022-11-23T21:54:50.313Z,82
2022-11-23T21:56:50.336Z,82
2022-11-23T21:58:50.959Z,82
2022-11-23T22:00:50.815Z,82
2022-11-23T22:02:50.454Z,82
2022-11-23T22:04:50.390Z,82
2022-11-23T22:06:50.498Z,82
2022-11-23T22:08:50.988Z,82
2022-11-23T22:10:50.833Z,82
2022-11-23T22:12:50.453Z,82
2022-11-23T22:14:50.089Z,82
2022-11-23T22:16:50.964Z,83
2022-11-23T22:18:56.621Z,83
2022-11-23T22:20:50.503Z,83
2022-11-23T22:22:50.082Z,83
2022-11-23T22:24:50.926Z,83
2022-11-23T22:26:50.790Z,82
2022-11-23T22:28:50.560Z,82
2022-11-23T22:30:50.558Z,83
2022-11-23T22:32:50.446Z,83
2022-11-23T22:34:50.482Z,83
2022-11-23T22:36:50.181Z,83
2022-11-23T22:38:51.024Z,83
2022-11-23T22:40:50.631Z,83
2022-11-23T22:42:50.255Z,83
2022-11-23T22:44:50.887Z,83
2022-11-23T22:46:50.911Z,83
2022-11-23T22:48:50.744Z,83
2022-11-23T22:50:50.292Z,83
2022-11-23T22:52:50.954Z,83
2022-11-23T22:54:50.542Z,83
2022-11-23T22:56:50.371Z,83
2022-11-23T22:58:50.203Z,83
2022-11-23T23:00:50.822Z,83
2022-11-23T23:02:51.618Z,83
2022-11-23T23:04:50.849Z,83
2022-11-23T23:06:51.005Z,83
2022-11-23T23:08:50.476Z,83
2022-11-23T23:10:50.205Z,83
2022-11-23T23:12:50.700Z,83
2022-11-23T23:14:50.304Z,83
2022-11-23T23:16:51.192Z,83
2022-11-23T23:18:50.765Z,83
2022-11-23T23:20:50.544Z,83
2022-11-23T23:22:50.094Z,83
2022-11-23T23:24:50.595Z,83
2022-11-23T23:26:50.545Z,83
2022-11-23T23:28:50.185Z,83
2022-11-23T23:30:51.012Z,83
2022-11-23T23:32:50.588Z,83
2022-11-23T23:34:50.693Z,83
2022-11-23T23:36:50.189Z,83
2022-11-23T23:38:50.642Z,83
2022-11-23T23:40:50.552Z,83
2022-11-23T23:42:50.158Z,83
2022-11-23T23:44:50.861Z,83
2022-11-23T23:46:50.751Z,83
2022-11-23T23:48:50.327Z,83
2022-11-23T23:50:50.122Z,83
2022-11-23T23:52:50.541Z,83
2022-11-23T23:54:50.153Z,83
2022-11-23T23:56:50.175Z,83
2022-11-23T23:58:50.601Z,83
